Cahone, CO (81320)

10:46 AM MDT on August 31, 2015 (GMT -0600)
Cahone (2.5 Miles NNE) | | Change Station
CLOSE
Current Station
Personal Weather Station
Location: Cahone, CO
Elevation: 6870 ft
Nearby Weather Stations

Elev 6870 ft 37.69 °N, 108.80 °W | Updated 16 seconds ago

Partly Cloudy
Partly Cloudy
72.3 °F
Feels Like 77 °F
N
7.0
Wind Variable Wind from WSW
Gusts 7.0 mph

Today
High -- | Low -- °F
--% Chance of Precip.
Yesterday
High -- | Low -- °F
Precip. -- in
6:44 AM 7:45 PM
Waning Gibbous, 94% visible
Pressure 30.02 in
Visibility 10.0 miles
Clouds Clear
Heat Index 77 °F
Dew Point 48 °F
Humidity 42%
Rainfall 0.00 in
Snow Depth Not available.
UV 5 out of 12
Pollen 6.90 out of 12
Air Quality Not available.
Flu Activity Not available.
METAR KCEZ 311553Z AUTO 00000KT 10SM CLR 22/11 A3024 RMK AO2 SLP164 T02220111
Pressure 30.02 in
Visibility 10.0 miles
Clouds Clear
Heat Index 77 °F
Dew Point 48 °F
Humidity 42%
Rainfall 0.00 in
Snow Depth Not available.
UV 5 out of 12
Pollen 6.90 out of 12
Air Quality Not available.
Flu Activity Not available.
METAR KCEZ 311553Z AUTO 00000KT 10SM CLR 22/11 A3024 RMK AO2 SLP164 T02220111

10-Day Weather Forecast

×

Almanac

Astronomy

Aug. 31, 2015 Rise Set
Actual Time
Civil Twilight
Nautical Twilight
Astronomical Twilight
Moon
Length of Visible Light
Length of Day
Tomorrow will be .
, % of the Moon is Illuminated

Today's Extremes

State Highs State Lows

Community

WunderPhotos

Upload Photos

1,851,307 photos uploaded!

WunderBlogs® & News

Nearby

Air Quality

  Air Quality AQ Index Pollutant
Not available.

Snow Depth

Station Depth Elevation

Earthquake Activity

City Distance Mag. Time & Date
Minimum magnitude displayed is 2.5.

Coastal Water Temperatures

Place Temperature

Stations

Nearby Weather Stations

Station Location Temp. Windchill Dew Point Humidity Wind Precip. Elev Updated Type